createdAt,value
2023-02-05T00:01:05.198Z,100129.88
2023-02-05T00:03:36.156Z,100137.92
2023-02-05T00:06:04.510Z,100131.23
2023-02-05T00:08:34.658Z,100134.14
2023-02-05T00:11:09.749Z,100137.41
2023-02-05T00:13:42.174Z,100138.28
2023-02-05T00:16:14.907Z,100143.56
2023-02-05T00:18:43.753Z,100140.61
2023-02-05T00:21:12.517Z,100144.96
2023-02-05T00:23:41.155Z,100141.25
2023-02-05T00:26:10.831Z,100143.41
2023-02-05T00:28:39.354Z,100141.02
2023-02-05T00:31:26.478Z,100141.34
2023-02-05T00:33:54.898Z,100138.31
2023-02-05T00:36:23.970Z,100138.59
2023-02-05T00:38:52.557Z,100141.34
2023-02-05T00:41:21.247Z,100141.63
2023-02-05T00:43:49.566Z,100145.25
2023-02-05T00:46:18.443Z,100148.18
2023-02-05T00:48:46.899Z,100151.66
2023-02-05T00:51:15.692Z,100148.74
2023-02-05T00:53:44.020Z,100145.63
2023-02-05T00:56:12.352Z,100143.73
2023-02-05T00:58:41.266Z,100143.30
2023-02-05T01:01:09.521Z,100139.97
2023-02-05T01:03:38.955Z,100138.08
2023-02-05T01:06:07.463Z,100142.48
2023-02-05T01:08:36.075Z,100138.70
2023-02-05T01:11:07.280Z,100136.14
2023-02-05T01:13:36.064Z,100137.51
2023-02-05T01:16:05.377Z,100136.14
2023-02-05T01:18:33.825Z,100134.17
2023-02-05T01:21:02.771Z,100135.94
2023-02-05T01:23:31.180Z,100139.70
2023-02-05T01:25:59.660Z,100139.70
2023-02-05T01:28:30.473Z,100144.80
2023-02-05T01:30:58.912Z,100145.11
2023-02-05T01:33:27.253Z,100141.17
2023-02-05T01:35:55.795Z,100147.47
2023-02-05T01:38:24.998Z,100148.41
2023-02-05T01:40:53.714Z,100150.67
2023-02-05T01:43:21.882Z,100151.89
2023-02-05T01:45:55.946Z,100154.59
2023-02-05T01:48:27.557Z,100153.71
2023-02-05T01:50:57.980Z,100155.47
2023-02-05T01:53:29.103Z,100161.12
2023-02-05T01:56:06.695Z,100157.22
2023-02-05T01:58:45.194Z,100157.73
2023-02-05T02:01:13.946Z,100156.48
2023-02-05T02:03:42.337Z,100153.66
2023-02-05T02:06:11.332Z,100158.02
2023-02-05T02:08:40.835Z,100155.98
2023-02-05T02:11:09.893Z,100152.95
2023-02-05T02:13:38.880Z,100154.70
2023-02-05T02:16:07.588Z,100157.35
2023-02-05T02:18:37.257Z,100157.34
2023-02-05T02:21:32.149Z,100151.64
2023-02-05T02:24:21.892Z,100151.27
2023-02-05T02:27:05.942Z,100152.81
2023-02-05T02:29:44.665Z,100150.11
2023-02-05T02:32:42.843Z,100148.23
2023-02-05T02:35:31.053Z,100149.09
2023-02-05T02:38:18.381Z,100149.14
2023-02-05T02:40:54.114Z,100152.59
2023-02-05T02:43:38.835Z,100152.11
2023-02-05T02:46:10.420Z,100150.48
2023-02-05T02:48:39.234Z,100146.69
2023-02-05T02:51:07.669Z,100150.13
2023-02-05T02:53:42.194Z,100151.31
2023-02-05T02:56:11.447Z,100154.77
2023-02-05T02:58:51.812Z,100156.85
2023-02-05T03:01:21.884Z,100161.76
2023-02-05T03:03:56.769Z,100159.77
2023-02-05T03:06:25.176Z,100169.92
2023-02-05T03:09:27.702Z,100167.31
2023-02-05T03:11:57.466Z,100171.10
2023-02-05T03:14:26.289Z,100170.63
2023-02-05T03:16:55.950Z,100170.77
2023-02-05T03:19:24.410Z,100167.48
2023-02-05T03:21:58.195Z,100167.23
2023-02-05T03:24:26.541Z,100166.86
2023-02-05T03:26:54.868Z,100165.14
2023-02-05T03:29:30.596Z,100166.02
2023-02-05T03:32:29.089Z,100163.45
2023-02-05T03:34:57.416Z,100161.36
2023-02-05T03:37:34.173Z,100164.15
2023-02-05T03:40:11.431Z,100166.59
2023-02-05T03:42:39.760Z,100168.44
2023-02-05T03:45:27.424Z,100167.17
2023-02-05T03:48:15.464Z,100171.08
2023-02-05T03:50:50.999Z,100174.14
2023-02-05T03:53:37.366Z,100176.38
2023-02-05T03:56:09.274Z,100173.14
2023-02-05T03:58:47.315Z,100171.34
2023-02-05T04:01:16.595Z,100173.58
2023-02-05T04:03:45.730Z,100176.15
2023-02-05T04:06:14.306Z,100174.42
2023-02-05T04:08:45.963Z,100178.86
2023-02-05T04:11:15.288Z,100180.92
2023-02-05T04:13:45.293Z,100182.30
2023-02-05T04:16:13.847Z,100179.73
2023-02-05T04:18:42.219Z,100182.66
2023-02-05T04:21:10.616Z,100181.85
2023-02-05T04:23:41.307Z,100177.80
2023-02-05T04:26:09.889Z,100179.92
2023-02-05T04:28:44.182Z,100180.16
2023-02-05T04:31:13.101Z,100179.64
2023-02-05T04:33:42.202Z,100180.66
2023-02-05T04:36:12.407Z,100172.21
2023-02-05T04:38:41.013Z,100170.65
2023-02-05T04:41:09.294Z,100172.67
2023-02-05T04:43:37.959Z,100176.68
2023-02-05T04:46:09.556Z,100175.38
2023-02-05T04:48:39.067Z,100171.09
2023-02-05T04:51:11.524Z,100172.06
2023-02-05T04:53:40.336Z,100176.66
2023-02-05T04:56:12.814Z,100188.17
2023-02-05T04:58:41.280Z,100196.95
2023-02-05T05:01:17.818Z,100198.88
2023-02-05T05:03:46.692Z,100193.10
2023-02-05T05:06:15.786Z,100195.74
2023-02-05T05:08:44.322Z,100194.69
2023-02-05T05:11:19.717Z,100198.85
2023-02-05T05:13:49.969Z,100197.94
2023-02-05T05:16:18.422Z,100196.61
2023-02-05T05:18:47.396Z,100200.50
2023-02-05T05:21:15.877Z,100204.36
2023-02-05T05:23:44.086Z,100202.23
2023-02-05T05:26:12.726Z,100202.90
2023-02-05T05:28:41.023Z,100206.67
2023-02-05T05:31:16.804Z,100208.69
2023-02-05T05:33:46.025Z,100211.98
2023-02-05T05:36:14.718Z,100216.02
2023-02-05T05:38:43.124Z,100210.30
2023-02-05T05:41:42.151Z,100215.68
2023-02-05T05:44:10.557Z,100219.70
2023-02-05T05:46:42.246Z,100222.45
2023-02-05T05:49:11.116Z,100228.39
2023-02-05T05:51:39.766Z,100231.02
2023-02-05T05:54:08.044Z,100236.13
2023-02-05T05:56:36.485Z,100237.23
2023-02-05T05:59:05.038Z,100237.30
2023-02-05T06:01:33.467Z,100242.83
2023-02-05T06:04:04.177Z,100246.00
2023-02-05T06:06:33.483Z,100251.36
2023-02-05T06:11:33.813Z,100260.55
2023-02-05T06:14:02.459Z,100261.60
2023-02-05T06:16:31.049Z,100258.77
2023-02-05T06:18:59.404Z,100260.60
2023-02-05T06:21:27.759Z,100264.58
2023-02-05T06:23:57.654Z,100270.11
2023-02-05T06:26:26.491Z,100266.38
2023-02-05T06:28:57.392Z,100267.52
2023-02-05T06:31:25.688Z,100267.58
2023-02-05T06:33:55.682Z,100268.61
2023-02-05T06:36:24.662Z,100267.39
2023-02-05T06:38:53.212Z,100266.34
2023-02-05T06:41:21.565Z,100273.38
2023-02-05T06:43:50.253Z,100275.95
2023-02-05T06:46:19.231Z,100273.40
2023-02-05T06:48:47.935Z,100274.29
2023-02-05T06:51:16.240Z,100278.23
2023-02-05T06:53:44.630Z,100279.61
2023-02-05T06:56:13.064Z,100281.68
2023-02-05T06:58:41.281Z,100288.45
2023-02-05T07:02:46.538Z,100290.02
2023-02-05T07:05:15.637Z,100288.09
2023-02-05T07:07:44.256Z,100291.77
2023-02-05T07:10:13.370Z,100288.93
2023-02-05T07:36:57.637Z,100321.88
2023-02-05T07:39:28.312Z,100315.40
2023-02-05T07:41:57.591Z,100311.47
2023-02-05T07:44:34.089Z,100305.39
2023-02-05T07:47:03.270Z,100306.92
2023-02-05T07:49:31.388Z,100304.82
2023-02-05T07:51:59.738Z,100303.54
2023-02-05T07:54:28.124Z,100303.05
2023-02-05T07:56:56.685Z,100300.79
2023-02-05T07:59:25.533Z,100301.61
2023-02-05T08:01:53.878Z,100305.48
2023-02-05T08:04:22.297Z,100306.73
2023-02-05T08:06:51.077Z,100311.29
2023-02-05T08:09:19.352Z,100310.67
2023-02-05T08:11:48.227Z,100307.82
2023-02-05T08:14:17.370Z,100307.67
2023-02-05T08:16:46.161Z,100316.81
2023-02-05T08:19:18.102Z,100321.98
2023-02-05T08:21:46.384Z,100318.84
2023-02-05T08:24:15.357Z,100320.35
2023-02-05T08:26:44.491Z,100326.27
2023-02-05T08:29:13.177Z,100325.48
2023-02-05T08:31:42.060Z,100329.88
2023-02-05T08:34:10.741Z,100331.13
2023-02-05T08:36:39.684Z,100335.49
2023-02-05T08:39:08.671Z,100337.45
2023-02-05T08:41:37.840Z,100340.26
2023-02-05T08:44:06.388Z,100341.87
2023-02-05T08:46:48.742Z,100340.02
2023-02-05T08:49:19.074Z,100340.38
2023-02-05T08:51:47.352Z,100341.27
2023-02-05T08:54:16.096Z,100343.55
2023-02-05T08:56:46.227Z,100348.91
2023-02-05T08:59:14.900Z,100349.76
2023-02-05T09:01:44.168Z,100352.54
2023-02-05T09:04:16.780Z,100353.60
2023-02-05T09:06:45.580Z,100352.48
2023-02-05T09:09:14.159Z,100359.26
2023-02-05T09:11:49.234Z,100361.27
2023-02-05T09:14:19.121Z,100359.77
2023-02-05T09:16:47.696Z,100359.90
2023-02-05T09:19:16.689Z,100362.11
2023-02-05T09:21:44.986Z,100354.86
2023-02-05T09:24:13.912Z,100351.12
2023-02-05T09:26:42.985Z,100347.55
2023-02-05T09:29:12.329Z,100348.45
2023-02-05T09:31:41.807Z,100344.69
2023-02-05T09:34:10.573Z,100342.48
2023-02-05T09:36:40.717Z,100340.77
2023-02-05T09:39:18.539Z,100341.73
2023-02-05T09:42:02.566Z,100336.36
2023-02-05T09:44:46.135Z,100332.54
2023-02-05T09:47:24.092Z,100332.17
2023-02-05T09:50:09.982Z,100341.29
2023-02-05T09:52:39.463Z,100402.16
2023-02-05T09:55:18.486Z,100344.02
2023-02-05T09:57:49.109Z,100323.25
2023-02-05T10:00:20.284Z,100319.87
2023-02-05T10:03:01.215Z,100320.79
2023-02-05T10:05:31.261Z,100321.45
2023-02-05T10:08:07.194Z,100321.09
2023-02-05T10:10:44.771Z,100325.95
2023-02-05T10:13:29.066Z,100321.86
2023-02-05T10:16:26.988Z,100323.48
2023-02-05T10:19:20.854Z,100328.88
2023-02-05T12:56:47.977Z,100461.31
2023-02-05T12:59:32.267Z,100462.59
2023-02-05T13:02:08.003Z,100461.67
2023-02-05T13:04:56.203Z,100453.30
2023-02-05T13:07:50.952Z,100454.65
2023-02-05T13:10:28.611Z,100457.35
2023-02-05T13:13:00.855Z,100460.72
2023-02-05T13:15:31.689Z,100463.02
2023-02-05T13:18:07.399Z,100468.75
2023-02-05T13:21:00.086Z,100470.49
2023-02-05T13:23:47.520Z,100470.85
2023-02-05T13:26:16.415Z,100472.10
2023-02-05T13:28:47.754Z,100472.38
2023-02-05T13:31:29.149Z,100472.65
2023-02-05T13:34:02.561Z,100475.44
2023-02-05T13:36:41.642Z,100477.20
2023-02-05T13:39:45.058Z,100480.63
2023-02-05T13:43:01.163Z,100481.20
2023-02-05T13:45:58.281Z,100487.48
2023-02-05T13:48:29.842Z,100493.59
2023-02-05T13:51:23.493Z,100494.27
2023-02-05T13:54:13.212Z,100499.51
2023-02-05T13:56:53.431Z,100496.21
2023-02-05T13:59:23.855Z,100497.65
2023-02-05T14:01:56.500Z,100500.08
2023-02-05T14:04:30.740Z,100500.79
2023-02-05T14:07:03.646Z,100510.29
2023-02-05T14:09:43.729Z,100508.71
2023-02-05T14:12:13.751Z,100511.79
2023-02-05T14:14:42.132Z,100513.73
2023-02-05T14:17:40.058Z,100515.18
2023-02-05T14:20:24.578Z,100518.95
2023-02-05T14:23:03.622Z,100521.14
2023-02-05T14:25:46.089Z,100519.73
2023-02-05T14:28:15.114Z,100523.17
2023-02-05T14:31:04.434Z,100521.80
2023-02-05T14:33:43.945Z,100524.60
2023-02-05T14:36:22.553Z,100530.45
2023-02-05T14:38:55.662Z,100528.31
2023-02-05T14:41:36.018Z,100528.17
2023-02-05T14:44:06.303Z,100530.11
2023-02-05T14:46:37.639Z,100534.97
2023-02-05T14:49:07.330Z,100539.81
2023-02-05T14:51:40.422Z,100541.00
2023-02-05T14:54:19.375Z,100544.82
2023-02-05T14:56:49.681Z,100542.13
2023-02-05T14:59:21.076Z,100552.83
2023-02-05T15:01:54.288Z,100556.59
2023-02-05T15:04:24.976Z,100541.50
2023-02-05T15:06:53.361Z,100542.85
2023-02-05T15:09:27.143Z,100544.05
2023-02-05T15:12:08.761Z,100551.12
2023-02-05T15:14:42.287Z,100551.98
2023-02-05T15:17:10.928Z,100563.02
2023-02-05T15:19:52.592Z,100572.19
2023-02-05T15:22:37.593Z,100569.94
2023-02-05T15:25:34.698Z,100568.04
2023-02-05T15:28:08.176Z,100563.00
2023-02-05T15:31:02.809Z,100564.40
2023-02-05T15:33:39.805Z,100569.77
2023-02-05T15:36:13.894Z,100569.41
2023-02-05T15:38:47.062Z,100569.92
2023-02-05T15:41:15.762Z,100571.79
2023-02-05T15:43:58.391Z,100572.33
2023-02-05T17:48:10.246Z,100683.95
2023-02-05T17:50:38.988Z,100697.29
2023-02-05T17:53:09.739Z,100697.55
2023-02-05T17:55:39.656Z,100707.91
2023-02-05T17:58:08.088Z,100705.63
2023-02-05T18:00:37.016Z,100704.98
2023-02-05T18:03:06.670Z,100702.98
2023-02-05T18:05:36.020Z,100706.39
2023-02-05T18:08:04.565Z,100711.73
2023-02-05T18:10:33.122Z,100713.61
2023-02-05T18:13:01.679Z,100714.45
2023-02-05T18:15:30.033Z,100720.23
2023-02-05T18:17:58.335Z,100726.63
2023-02-05T18:20:28.335Z,100728.06
2023-02-05T18:22:56.920Z,100733.10
2023-02-05T18:25:25.614Z,100739.19
2023-02-05T18:27:56.413Z,100736.57
2023-02-05T18:30:24.806Z,100744.24
2023-02-05T18:32:53.137Z,100744.28
2023-02-05T18:35:21.463Z,100747.05
2023-02-05T18:37:49.965Z,100747.02
2023-02-05T18:40:18.223Z,100748.10
2023-02-05T18:42:52.137Z,100751.69
2023-02-05T18:45:20.463Z,100755.31
2023-02-05T18:47:49.121Z,100752.98
2023-02-05T18:50:17.887Z,100751.27
2023-02-05T18:52:48.358Z,100750.02
2023-02-05T18:55:17.029Z,100750.90
2023-02-05T18:57:45.461Z,100754.66
2023-02-05T19:00:14.527Z,100755.29
2023-02-05T19:02:42.865Z,100760.38
2023-02-05T19:05:11.811Z,100762.64
2023-02-05T19:07:40.339Z,100761.77
2023-02-05T19:10:08.648Z,100764.90
2023-02-05T19:12:37.586Z,100770.23
2023-02-05T19:15:06.268Z,100773.67
2023-02-05T19:17:36.184Z,100777.77
2023-02-05T19:20:06.068Z,100779.48
2023-02-05T19:22:34.464Z,100782.57
2023-02-05T19:25:03.025Z,100784.27
2023-02-05T19:27:31.786Z,100789.41
2023-02-05T19:30:00.243Z,100793.41
2023-02-05T19:32:28.548Z,100794.83
2023-02-05T19:34:57.294Z,100795.67
2023-02-05T19:37:26.234Z,100798.08
2023-02-05T19:39:54.590Z,100803.21
2023-02-05T19:42:23.135Z,100809.41
2023-02-05T19:44:51.483Z,100814.94
2023-02-05T19:47:21.304Z,100817.40
2023-02-05T19:49:49.626Z,100818.64
2023-02-05T19:52:18.092Z,100818.14
2023-02-05T19:54:46.490Z,100824.02
2023-02-05T19:57:14.851Z,100823.52
2023-02-05T19:59:43.357Z,100828.05
2023-02-05T20:02:19.363Z,100831.23
2023-02-05T20:04:47.970Z,100832.42
2023-02-05T20:07:16.848Z,100826.14
2023-02-05T20:09:45.513Z,100828.36
2023-02-05T20:12:13.944Z,100830.42
2023-02-05T20:14:42.218Z,100832.46
2023-02-05T20:17:12.187Z,100837.20
2023-02-05T20:19:40.495Z,100841.68
2023-02-05T20:22:10.225Z,100842.11
2023-02-05T20:24:38.580Z,100840.89
2023-02-05T20:27:07.014Z,100842.42
2023-02-05T20:29:54.034Z,100844.73
2023-02-05T20:32:23.179Z,100848.73
2023-02-05T20:34:51.610Z,100847.77
2023-02-05T20:37:20.090Z,100851.72
2023-02-05T20:39:49.038Z,100851.92
2023-02-05T20:42:17.520Z,100857.31
2023-02-05T20:44:45.957Z,100858.98
2023-02-05T20:47:14.775Z,100860.92
2023-02-05T20:49:43.261Z,100864.02
2023-02-05T20:52:11.825Z,100868.65
2023-02-05T20:54:40.745Z,100872.63
2023-02-05T20:57:09.574Z,100874.45
2023-02-05T20:59:38.872Z,100875.66
2023-02-05T21:02:07.563Z,100882.20
2023-02-05T21:04:36.846Z,100885.21
2023-02-05T21:07:05.178Z,100888.16
2023-02-05T21:09:36.138Z,100892.66
2023-02-05T21:12:04.805Z,100896.27
2023-02-05T21:14:34.501Z,100898.69
2023-02-05T21:17:03.432Z,100901.13
2023-02-05T21:19:32.708Z,100904.08
2023-02-05T21:22:01.551Z,100908.09
2023-02-05T21:24:30.394Z,100908.81
2023-02-05T21:26:58.754Z,100909.48
2023-02-05T21:29:26.948Z,100907.90
2023-02-05T21:31:56.042Z,100904.48
2023-02-05T21:34:26.485Z,100904.41
2023-02-05T21:36:55.336Z,100909.59
2023-02-05T21:39:24.016Z,100910.38
2023-02-05T21:41:53.581Z,100913.81
2023-02-05T21:44:22.240Z,100919.36
2023-02-05T21:46:50.489Z,100922.00
2023-02-05T21:49:18.963Z,100926.68
2023-02-05T21:51:48.395Z,100928.79
2023-02-05T21:54:16.726Z,100933.88
2023-02-05T21:56:44.957Z,100935.90
2023-02-05T21:59:13.370Z,100936.77
2023-02-05T22:01:42.284Z,100940.88
2023-02-05T22:04:12.319Z,100942.89
2023-02-05T22:06:40.810Z,100944.71
2023-02-05T22:09:12.691Z,100945.64
2023-02-05T22:11:41.220Z,100945.25
2023-02-05T22:14:09.770Z,100943.02
2023-02-05T22:16:38.690Z,100940.45
2023-02-05T22:19:07.605Z,100938.27
2023-02-05T22:21:38.213Z,100941.60
2023-02-05T22:24:06.748Z,100940.08
2023-02-05T22:26:37.664Z,100941.32
2023-02-05T22:29:07.401Z,100942.85
2023-02-05T22:31:36.406Z,100941.48
2023-02-05T22:34:04.733Z,100938.05
2023-02-05T22:36:34.472Z,100944.70
2023-02-05T22:39:04.101Z,100949.89
2023-02-05T22:41:37.863Z,100943.73
2023-02-05T22:44:06.775Z,100949.64
2023-02-05T22:46:39.923Z,100955.86
2023-02-05T22:49:08.327Z,100962.23
2023-02-05T22:51:38.708Z,100969.97
2023-02-05T22:54:07.849Z,100967.35
2023-02-05T22:56:37.464Z,100964.63
2023-02-05T22:59:06.492Z,100965.11
2023-02-05T23:01:36.322Z,100964.79
2023-02-05T23:04:05.857Z,100968.36
2023-02-05T23:06:35.909Z,100974.13
2023-02-05T23:09:22.174Z,100971.33
2023-02-05T23:11:50.902Z,100979.05
2023-02-05T23:14:19.499Z,100978.80
2023-02-05T23:16:47.922Z,100979.89
2023-02-05T23:19:20.084Z,100981.98
2023-02-05T23:21:48.534Z,100990.48
2023-02-05T23:24:17.220Z,100993.16
2023-02-05T23:26:48.289Z,100990.63
2023-02-05T23:29:17.314Z,100993.05
2023-02-05T23:31:45.771Z,100995.38
2023-02-05T23:34:14.024Z,101001.58
2023-02-05T23:36:43.450Z,101000.90
2023-02-05T23:39:12.140Z,101002.14
2023-02-05T23:41:40.471Z,101004.30
2023-02-05T23:44:20.993Z,101005.10
2023-02-05T23:46:49.866Z,101005.82
2023-02-05T23:49:23.338Z,101009.51
2023-02-05T23:51:53.123Z,101010.90
2023-02-05T23:54:22.403Z,101012.31
2023-02-05T23:56:51.751Z,101013.16
2023-02-05T23:59:20.080Z,101012.78
